Weather at Adana Şakirpaşa Airport

Public forecast

Using degrees Celsius for public forecast. Weather courtesy of forecast.io.

Current aviation weather report (METAR) for Adana Şakirpaşa Airport

2024/05/19 13:50 (retrieved 33 minutes ago)

LTAF 191350Z 21009KT CAVOK 28/19 Q1010 NOSIG RMK RWY23 20009KT 4CI200

Aviation forecast (TAF) for Adana Şakirpaşa Airport

2024/05/19 12:00 (retrieved 2 hours ago)

TAF LTAF 191040Z 1912/2012 21012KT CAVOK BECMG 1912/1915 SCT035 BECMG 1915/1917 VRB02KT